createdAt,value
2017-06-24T00:01:04.634Z,53.15
2017-06-24T00:02:14.252Z,53.73
2017-06-24T00:03:24.488Z,53.83
2017-06-24T00:04:34.416Z,53.7
2017-06-24T00:05:44.030Z,53.73
2017-06-24T00:06:54.278Z,53.63
2017-06-24T00:08:03.887Z,53.73
2017-06-24T00:09:14.120Z,53.73
2017-06-24T00:10:24.362Z,54.31
2017-06-24T00:11:34.604Z,54.6
2017-06-24T00:12:44.550Z,54.5
2017-06-24T00:13:54.478Z,54.6
2017-06-24T00:15:04.407Z,54.88
2017-06-24T00:16:14.673Z,54.69
2017-06-24T00:17:24.914Z,54.5
2017-06-24T00:18:34.847Z,54.47
2017-06-24T00:19:45.104Z,54.79
2017-06-24T00:20:55.347Z,54.6
2017-06-24T00:22:04.966Z,54.88
2017-06-24T00:23:14.273Z,54.76
2017-06-24T00:24:23.886Z,54.76
2017-06-24T00:25:33.810Z,55.05
2017-06-24T00:26:44.046Z,54.96
2017-06-24T00:27:53.971Z,55.36
2017-06-24T00:29:04.217Z,55.56
2017-06-24T00:30:14.465Z,55.82
2017-06-24T00:31:24.709Z,55.08
2017-06-24T00:32:34.955Z,55.24
2017-06-24T00:33:44.912Z,55.27
2017-06-24T00:34:55.144Z,55.36
2017-06-24T00:36:04.763Z,55.76
2017-06-24T00:37:14.695Z,55.15
2017-06-24T00:38:24.313Z,55.82
2017-06-24T00:39:34.556Z,56.11
2017-06-24T00:40:44.480Z,55.54
2017-06-24T00:41:54.439Z,55.54
2017-06-24T00:43:04.051Z,55.73
2017-06-24T00:44:13.979Z,55.92
2017-06-24T00:45:23.908Z,55.54
2017-06-24T00:46:33.524Z,55.63
2017-06-24T00:47:43.769Z,55.82
2017-06-24T00:48:53.073Z,55.82
2017-06-24T00:50:02.695Z,55.73
2017-06-24T00:51:12.937Z,55.63
2017-06-24T00:52:22.864Z,55.15
2017-06-24T00:53:32.797Z,55.63
2017-06-24T00:54:43.034Z,55.73
2017-06-24T00:55:53.277Z,55.63
2017-06-24T00:57:03.211Z,56.11
2017-06-24T00:58:12.824Z,55.92
2017-06-24T00:59:22.453Z,55.82
2017-06-24T01:00:32.727Z,55.82
2017-06-24T01:01:42.965Z,56.21
2017-06-24T01:02:52.584Z,56.01
2017-06-24T01:04:02.833Z,55.82
2017-06-24T01:05:12.761Z,55.63
2017-06-24T01:06:22.689Z,55.54
2017-06-24T01:07:32.624Z,56.01
2017-06-24T01:08:42.554Z,55.92
2017-06-24T01:09:52.487Z,56.01
2017-06-24T01:11:02.417Z,56.11
2017-06-24T01:12:12.683Z,56.01
2017-06-24T01:13:22.925Z,56.01
2017-06-24T01:14:33.165Z,56.4
2017-06-24T01:15:43.412Z,56.11
2017-06-24T01:16:53.345Z,56.49
2017-06-24T01:18:03.594Z,56.27
2017-06-24T01:19:13.841Z,56.47
2017-06-24T01:20:23.771Z,56.59
2017-06-24T01:21:33.708Z,56.37
2017-06-24T01:22:43.641Z,56.18
2017-06-24T01:23:53.879Z,56.27
2017-06-24T01:25:04.126Z,56.27
2017-06-24T01:26:14.388Z,56.3
2017-06-24T01:27:24.013Z,56.37
2017-06-24T01:28:33.944Z,56.18
2017-06-24T01:29:43.874Z,55.99
2017-06-24T01:30:54.122Z,56.47
2017-06-24T01:32:04.367Z,56.18
2017-06-24T01:33:14.289Z,56.4
2017-06-24T01:34:23.931Z,56.27
2017-06-24T01:35:33.872Z,56.59
2017-06-24T01:36:44.116Z,56.18
2017-06-24T01:37:53.764Z,56.47
2017-06-24T01:39:04.008Z,56.57
2017-06-24T01:40:14.248Z,56.85
2017-06-24T01:41:24.483Z,56.09
2017-06-24T01:42:34.411Z,56.59
2017-06-24T01:43:44.674Z,55.92
2017-06-24T01:44:54.601Z,55.82
2017-06-24T01:46:04.531Z,55.92
2017-06-24T01:47:14.460Z,55.82
2017-06-24T01:48:24.700Z,56.21
2017-06-24T01:49:34.631Z,55.82
2017-06-24T01:50:44.876Z,56.21
2017-06-24T01:51:55.120Z,56.79
2017-06-24T01:53:05.363Z,56.21
2017-06-24T01:54:15.294Z,56.98
2017-06-24T01:55:24.911Z,57.17
2017-06-24T01:56:34.842Z,57.14
2017-06-24T01:57:44.464Z,57.05
2017-06-24T01:58:54.716Z,57.05
2017-06-24T02:00:04.955Z,56.85
2017-06-24T02:01:14.883Z,56.57
2017-06-24T02:02:25.130Z,56.59
2017-06-24T02:03:35.062Z,56.49
2017-06-24T02:04:45.306Z,56.76
2017-06-24T02:05:55.549Z,57.05
2017-06-24T02:07:05.473Z,56.95
2017-06-24T02:08:15.077Z,56.4
2017-06-24T02:09:25.319Z,56.49
2017-06-24T02:10:35.561Z,55.82
2017-06-24T02:11:45.805Z,56.01
2017-06-24T02:12:55.739Z,55.73
2017-06-24T02:14:05.984Z,56.3
2017-06-24T02:15:15.284Z,56.59
2017-06-24T02:16:24.903Z,55.73
2017-06-24T02:17:34.518Z,55.44
2017-06-24T02:18:44.759Z,55.15
2017-06-24T02:19:54.683Z,55.63
2017-06-24T02:21:04.926Z,56.21
2017-06-24T02:22:15.170Z,56.01
2017-06-24T02:23:25.412Z,56.01
2017-06-24T02:24:35.692Z,56.01
2017-06-24T02:25:45.630Z,55.82
2017-06-24T02:26:55.872Z,55.92
2017-06-24T02:28:05.802Z,55.92
2017-06-24T02:29:15.730Z,56.11
2017-06-24T02:30:25.975Z,56.21
2017-06-24T02:31:36.215Z,56.01
2017-06-24T02:32:46.458Z,56.01
2017-06-24T02:33:56.391Z,55.92
2017-06-24T02:35:06.637Z,55.63
2017-06-24T02:36:16.264Z,55.24
2017-06-24T02:37:26.193Z,55.63
2017-06-24T02:38:36.125Z,54.96
2017-06-24T02:39:46.063Z,55.15
2017-06-24T02:40:56.308Z,55.05
2017-06-24T02:42:06.230Z,55.15
2017-06-24T02:43:16.468Z,55.73
2017-06-24T02:44:26.084Z,55.05
2017-06-24T02:45:36.328Z,55.05
2017-06-24T02:46:46.259Z,54.86
2017-06-24T02:47:55.872Z,55.05
2017-06-24T02:49:05.804Z,54.76
2017-06-24T02:50:15.741Z,54.57
2017-06-24T02:51:25.355Z,54.18
2017-06-24T02:52:35.597Z,54.28
2017-06-24T02:53:45.529Z,54.31
2017-06-24T02:54:55.764Z,53.73
2017-06-24T02:56:05.697Z,53.73
2017-06-24T02:57:15.625Z,53.61
2017-06-24T02:58:25.873Z,53.7
2017-06-24T02:59:35.489Z,53.61
2017-06-24T03:00:45.734Z,53.7
2017-06-24T03:01:55.982Z,53.89
2017-06-24T03:03:05.916Z,53.8
2017-06-24T03:04:15.848Z,53.03
2017-06-24T03:05:25.781Z,52.73
2017-06-24T03:06:35.705Z,52.83
2017-06-24T03:07:45.043Z,52.83
2017-06-24T03:08:55.282Z,52.57
2017-06-24T03:10:05.214Z,52.47
2017-06-24T03:11:15.453Z,52.47
2017-06-24T03:12:25.697Z,52.25
2017-06-24T03:13:35.932Z,52.25
2017-06-24T03:14:45.861Z,52.55
2017-06-24T03:15:55.795Z,52.35
2017-06-24T03:17:06.041Z,52.25
2017-06-24T03:18:15.663Z,51.97
2017-06-24T03:19:25.591Z,51.97
2017-06-24T03:20:35.524Z,52.16
2017-06-24T03:21:45.776Z,52.16
2017-06-24T03:22:55.393Z,52.35
2017-06-24T03:24:05.640Z,51.97
2017-06-24T03:25:15.569Z,51.97
2017-06-24T03:26:24.869Z,51.97
2017-06-24T03:27:34.802Z,52.06
2017-06-24T03:28:45.054Z,51.97
2017-06-24T03:29:54.985Z,51.68
2017-06-24T03:31:04.917Z,51.97
2017-06-24T03:32:15.192Z,52.45
2017-06-24T03:33:24.811Z,51.68
2017-06-24T03:34:34.744Z,51.68
2017-06-24T03:35:44.686Z,51.68
2017-06-24T03:36:54.929Z,51.97
2017-06-24T03:38:05.163Z,51.87
2017-06-24T03:39:15.084Z,51.7
2017-06-24T03:40:25.014Z,51.89
2017-06-24T03:41:35.260Z,51.7
2017-06-24T03:42:45.201Z,51.61
2017-06-24T03:43:55.135Z,51.7
2017-06-24T03:45:05.380Z,51.8
2017-06-24T03:46:14.689Z,51.7
2017-06-24T03:47:24.931Z,51.63
2017-06-24T03:48:35.172Z,51.53
2017-06-24T03:49:44.790Z,51.63
2017-06-24T03:50:55.050Z,51.92
2017-06-24T03:52:04.658Z,51.73
2017-06-24T03:53:14.280Z,51.73
2017-06-24T03:54:24.524Z,52.01
2017-06-24T03:55:34.450Z,51.82
2017-06-24T03:56:44.069Z,51.63
2017-06-24T03:57:53.999Z,51.82
2017-06-24T03:59:04.255Z,51.82
2017-06-24T04:00:14.498Z,51.25
2017-06-24T04:01:24.430Z,51.34
2017-06-24T04:02:34.051Z,51.34
2017-06-24T04:03:43.986Z,51.73
2017-06-24T04:04:54.227Z,51.82
2017-06-24T04:06:04.162Z,51.25
2017-06-24T04:07:14.402Z,51.15
2017-06-24T04:08:24.330Z,51.34
2017-06-24T04:09:34.258Z,51.63
2017-06-24T04:10:44.499Z,51.73
2017-06-24T04:11:54.114Z,51.63
2017-06-24T04:13:04.365Z,51.34
2017-06-24T04:14:14.606Z,51.73
2017-06-24T04:15:23.910Z,52.4
2017-06-24T04:16:33.543Z,52.31
2017-06-24T04:17:43.783Z,52.21
2017-06-24T04:18:54.031Z,51.53
2017-06-24T04:20:03.655Z,51.73
2017-06-24T04:21:12.967Z,51.05
2017-06-24T04:22:23.212Z,51.44
2017-06-24T04:23:33.451Z,51.53
2017-06-24T04:24:43.688Z,51.53
2017-06-24T04:25:53.937Z,51.44
2017-06-24T04:27:04.184Z,50.76
2017-06-24T04:28:13.806Z,51.25
2017-06-24T04:29:23.414Z,51.25
2017-06-24T04:30:33.659Z,51.63
2017-06-24T04:31:43.581Z,51.63
2017-06-24T04:32:53.194Z,51.34
2017-06-24T04:34:03.123Z,51.34
2017-06-24T04:35:13.373Z,51.73
2017-06-24T04:36:23.309Z,51.75
2017-06-24T04:37:33.278Z,51.56
2017-06-24T04:38:43.520Z,52.04
2017-06-24T04:39:53.449Z,52.11
2017-06-24T04:41:03.697Z,51.92
2017-06-24T04:42:13.628Z,52.01
2017-06-24T04:43:23.879Z,52.14
2017-06-24T04:44:34.129Z,52.43
2017-06-24T04:45:44.063Z,52.21
2017-06-24T04:46:54.307Z,52.31
2017-06-24T04:48:04.237Z,51.92
2017-06-24T04:49:14.482Z,52.01
2017-06-24T04:50:23.787Z,52.04
2017-06-24T04:51:33.720Z,52.04
2017-06-24T04:52:43.963Z,51.85
2017-06-24T04:53:53.895Z,51.95
2017-06-24T04:55:04.139Z,52.04
2017-06-24T04:56:14.386Z,51.95
2017-06-24T04:57:24.634Z,51.85
2017-06-24T04:58:34.882Z,51.75
2017-06-24T04:59:45.129Z,51.85
2017-06-24T05:00:55.062Z,51.95
2017-06-24T05:02:05.312Z,51.95
2017-06-24T05:03:15.248Z,51.85
2017-06-24T05:04:25.494Z,51.85
2017-06-24T05:05:35.746Z,52.04
2017-06-24T05:06:45.986Z,52.04
2017-06-24T05:07:55.916Z,51.75
2017-06-24T05:09:06.159Z,51.95
2017-06-24T05:10:16.085Z,51.85
2017-06-24T05:11:25.716Z,51.95
2017-06-24T05:12:35.017Z,51.95
2017-06-24T05:13:44.632Z,51.75
2017-06-24T05:14:54.573Z,51.75
2017-06-24T05:16:04.818Z,52.43
2017-06-24T05:17:15.064Z,52.53
2017-06-24T05:18:25.311Z,51.85
2017-06-24T05:19:35.561Z,51.95
2017-06-24T05:20:45.799Z,52.23
2017-06-24T05:21:55.730Z,52.91
2017-06-24T05:23:05.665Z,52.72
2017-06-24T05:24:15.607Z,52.43
2017-06-24T05:25:25.854Z,52.43
2017-06-24T05:26:36.095Z,52.81
2017-06-24T05:27:46.333Z,52.53
2017-06-24T05:28:56.579Z,52.62
2017-06-24T05:30:06.828Z,52.53
2017-06-24T05:31:16.762Z,52.53
2017-06-24T05:32:26.693Z,52.43
2017-06-24T05:33:36.934Z,52.14
2017-06-24T05:34:46.862Z,52.23
2017-06-24T05:35:57.112Z,52.04
2017-06-24T05:37:07.050Z,52.04
2017-06-24T05:38:16.976Z,51.85
2017-06-24T05:39:27.222Z,52.33
2017-06-24T05:40:37.471Z,52.33
2017-06-24T05:41:47.398Z,52.33
2017-06-24T05:42:57.015Z,52.33
2017-06-24T05:44:07.255Z,52.23
2017-06-24T05:45:17.183Z,52.23
2017-06-24T05:46:27.115Z,52.23
2017-06-24T05:47:37.361Z,52.14
2017-06-24T05:48:47.606Z,52.14
2017-06-24T05:49:57.855Z,52.43
2017-06-24T05:51:07.466Z,52.53
2017-06-24T05:52:17.398Z,52.23
2017-06-24T05:53:27.331Z,52.53
2017-06-24T05:54:37.573Z,52.72
2017-06-24T05:55:47.504Z,52.91
2017-06-24T05:56:57.438Z,52.53
2017-06-24T05:58:07.379Z,52.33
2017-06-24T05:59:17.625Z,52.53
2017-06-24T06:00:27.866Z,52.14
2017-06-24T06:01:38.126Z,52.14
2017-06-24T06:02:48.061Z,52.81
2017-06-24T06:03:58.301Z,52.33
2017-06-24T06:05:08.550Z,52.72
2017-06-24T06:06:18.800Z,52.62
2017-06-24T06:07:28.418Z,52.43
2017-06-24T06:08:38.032Z,52.43
2017-06-24T06:09:47.961Z,52.04
2017-06-24T06:10:57.576Z,52.53
2017-06-24T06:12:07.509Z,52.43
2017-06-24T06:13:17.446Z,52.53
2017-06-24T06:14:26.751Z,52.72
2017-06-24T06:15:36.995Z,53.01
2017-06-24T06:16:46.924Z,52.43
2017-06-24T06:17:57.174Z,52.91
2017-06-24T06:19:07.417Z,52.62
2017-06-24T06:20:16.401Z,52.33
2017-06-24T06:21:26.333Z,52.62
2017-06-24T06:22:36.268Z,52.53
2017-06-24T06:23:46.505Z,52.04
2017-06-24T06:24:56.443Z,52.43
2017-06-24T06:26:06.691Z,52.33
2017-06-24T06:27:16.936Z,52.62
2017-06-24T06:28:26.864Z,52.43
2017-06-24T06:29:37.114Z,52.33
2017-06-24T06:30:47.042Z,52.43
2017-06-24T06:31:56.653Z,52.14
2017-06-24T06:33:06.581Z,52.53
2017-06-24T06:34:16.200Z,52.23
2017-06-24T06:35:26.130Z,52.53
2017-06-24T06:36:36.066Z,52.23
2017-06-24T06:37:45.994Z,51.95
2017-06-24T06:38:55.933Z,52.23
2017-06-24T06:40:05.547Z,52.23
2017-06-24T06:41:15.473Z,52.14
2017-06-24T06:42:25.713Z,52.89
2017-06-24T06:43:35.644Z,52.43
2017-06-24T06:44:45.572Z,52.43
2017-06-24T06:45:55.194Z,52.53
2017-06-24T06:47:05.454Z,51.95
2017-06-24T06:48:15.403Z,52.14
2017-06-24T06:49:25.648Z,51.95
2017-06-24T06:50:35.882Z,52.33
2017-06-24T06:51:45.494Z,51.95
2017-06-24T06:52:55.421Z,52.23
2017-06-24T06:54:05.663Z,52.23
2017-06-24T06:55:15.587Z,52.33
2017-06-24T06:56:25.825Z,52.33
2017-06-24T06:57:36.066Z,52.23
2017-06-24T06:58:45.993Z,52.33
2017-06-24T06:59:55.619Z,52.62
2017-06-24T07:01:05.557Z,52.33
2017-06-24T07:02:15.804Z,52.53
2017-06-24T07:03:25.732Z,52.89
2017-06-24T07:04:35.351Z,52.62
2017-06-24T07:05:45.287Z,52.33
2017-06-24T07:06:54.590Z,52.14
2017-06-24T07:08:04.527Z,52.53
2017-06-24T07:09:14.155Z,52.98
2017-06-24T07:10:24.398Z,52.11
2017-06-24T07:11:34.641Z,52.91
2017-06-24T07:12:44.565Z,52.91
2017-06-24T07:13:54.498Z,52.91
2017-06-24T07:15:04.474Z,52.91
2017-06-24T07:16:14.398Z,52.72
2017-06-24T07:17:24.642Z,52.72
2017-06-24T07:18:34.579Z,52.91
2017-06-24T07:19:43.567Z,52.91
2017-06-24T07:20:53.182Z,53.2
2017-06-24T07:22:03.435Z,53.2
2017-06-24T07:23:13.685Z,52.91
2017-06-24T07:24:23.617Z,53.3
2017-06-24T07:25:33.594Z,53.78
2017-06-24T07:26:42.896Z,53.59
2017-06-24T07:27:53.147Z,53.3
2017-06-24T07:29:02.453Z,53.11
2017-06-24T07:30:12.386Z,53.69
2017-06-24T07:31:22.630Z,53.3
2017-06-24T07:32:32.871Z,53.01
2017-06-24T07:33:42.806Z,53.11
2017-06-24T07:34:52.733Z,53.3
2017-06-24T07:36:02.973Z,53.39
2017-06-24T07:37:13.218Z,53.11
2017-06-24T07:38:22.838Z,53.78
2017-06-24T07:39:33.089Z,53.2
2017-06-24T07:40:43.335Z,53.59
2017-06-24T07:41:53.262Z,53.69
2017-06-24T07:43:03.506Z,53.3
2017-06-24T07:44:13.120Z,52.81
2017-06-24T07:45:23.357Z,53.69
2017-06-24T07:46:33.291Z,53.49
2017-06-24T07:47:42.595Z,53.49
2017-06-24T07:48:52.208Z,53.49
2017-06-24T07:50:01.828Z,53.49
2017-06-24T07:51:11.446Z,53.88
2017-06-24T07:52:21.061Z,53.59
2017-06-24T07:53:31.305Z,54.17
2017-06-24T07:54:41.232Z,54.36
2017-06-24T07:55:51.477Z,53.11
2017-06-24T07:57:01.403Z,53.59
2017-06-24T07:58:11.647Z,53.2
2017-06-24T07:59:21.571Z,53.3
2017-06-24T08:00:31.814Z,53.78
2017-06-24T08:01:42.071Z,53.69
2017-06-24T08:02:52.327Z,53.59
2017-06-24T08:04:02.252Z,53.69
2017-06-24T08:05:12.183Z,53.69
2017-06-24T08:06:22.115Z,53.11
2017-06-24T08:07:31.727Z,53.39
2017-06-24T08:08:41.033Z,53.59
2017-06-24T08:09:50.647Z,53.88
2017-06-24T08:11:00.576Z,53.69
2017-06-24T08:12:10.503Z,53.2
2017-06-24T08:13:20.745Z,53.78
2017-06-24T08:14:30.363Z,53.69
2017-06-24T08:15:40.608Z,54.07
2017-06-24T08:16:50.851Z,53.59
2017-06-24T08:18:00.782Z,53.69
2017-06-24T08:19:10.705Z,53.59
2017-06-24T08:20:20.953Z,53.2
2017-06-24T08:21:30.889Z,54.94
2017-06-24T08:22:41.144Z,55.33
2017-06-24T08:23:51.072Z,54.84
2017-06-24T08:25:01.313Z,54.84
2017-06-24T08:26:11.246Z,54.65
2017-06-24T08:27:21.184Z,55.33
2017-06-24T08:28:31.435Z,54.84
2017-06-24T08:29:41.370Z,54.84
2017-06-24T08:30:51.297Z,54.94
2017-06-24T08:32:01.543Z,54.27
2017-06-24T08:33:11.475Z,54.27
2017-06-24T08:34:21.715Z,54.84
2017-06-24T08:35:31.951Z,54.84
2017-06-24T08:36:42.200Z,54.94
2017-06-24T08:37:52.134Z,54.75
2017-06-24T08:39:01.751Z,54.75
2017-06-24T08:40:11.997Z,54.27
2017-06-24T08:41:21.612Z,54.46
2017-06-24T08:42:31.234Z,54.36
2017-06-24T08:43:41.474Z,54.36
2017-06-24T08:44:51.721Z,55.04
2017-06-24T08:46:01.025Z,53.78
2017-06-24T08:47:10.959Z,53.78
2017-06-24T08:48:20.889Z,53.97
2017-06-24T08:49:31.147Z,53.42
2017-06-24T08:50:41.081Z,53.33
2017-06-24T08:51:50.074Z,53.33
2017-06-24T08:53:00.009Z,53.52
2017-06-24T08:54:09.948Z,53.33
2017-06-24T08:55:20.193Z,52.94
2017-06-24T08:56:30.122Z,53.03
2017-06-24T08:57:40.053Z,52.75
2017-06-24T08:58:50.303Z,52.84
2017-06-24T09:00:00.545Z,52.75
2017-06-24T09:01:10.481Z,53.33
2017-06-24T09:02:20.725Z,52.55
2017-06-24T09:03:30.339Z,52.94
2017-06-24T09:04:40.268Z,53.13
2017-06-24T09:05:50.511Z,53.03
2017-06-24T09:07:00.754Z,52.84
2017-06-24T09:08:10.992Z,53.33
2017-06-24T09:09:20.925Z,53.52
2017-06-24T09:10:30.858Z,53.71
2017-06-24T09:11:41.097Z,53.42
2017-06-24T09:12:51.021Z,52.94
2017-06-24T09:14:01.266Z,52.84
2017-06-24T09:15:11.511Z,53.13
2017-06-24T09:16:21.442Z,53.23
2017-06-24T09:17:31.689Z,53.33
2017-06-24T09:18:41.616Z,53.42
2017-06-24T09:19:51.546Z,53.13
2017-06-24T09:21:01.156Z,53.33
2017-06-24T09:22:11.440Z,53.81
2017-06-24T09:23:21.061Z,53.81
2017-06-24T09:24:30.678Z,54.19
2017-06-24T09:25:40.612Z,54.19
2017-06-24T09:26:50.859Z,53.61
2017-06-24T09:28:01.100Z,53.61
2017-06-24T09:29:11.030Z,53.61
2017-06-24T09:30:21.280Z,53.52
2017-06-24T09:31:31.526Z,53.52
2017-06-24T09:32:41.767Z,54.19
2017-06-24T09:33:51.700Z,54.29
2017-06-24T09:35:01.635Z,54.49
2017-06-24T09:36:11.895Z,54.19
2017-06-24T09:37:21.510Z,54.49
2017-06-24T09:38:31.125Z,54.49
2017-06-24T09:39:41.058Z,54.19
2017-06-24T09:40:50.991Z,54.49
2017-06-24T09:42:01.239Z,54.39
2017-06-24T09:43:11.485Z,53.91
2017-06-24T09:44:21.409Z,54.29
2017-06-24T09:45:31.655Z,54.1
2017-06-24T09:46:41.588Z,54.49
2017-06-24T09:47:51.522Z,54.1
2017-06-24T09:49:01.764Z,54.68
2017-06-24T09:50:11.711Z,54.29
2017-06-24T09:51:21.948Z,54.58
2017-06-24T09:52:32.203Z,54.39
2017-06-24T09:53:42.130Z,54.19
2017-06-24T09:54:51.750Z,54.49
2017-06-24T09:56:01.685Z,54.1
2017-06-24T09:57:11.633Z,54
2017-06-24T09:58:21.877Z,54.19
2017-06-24T09:59:32.116Z,54.58
2017-06-24T10:00:42.049Z,55.07
2017-06-24T10:01:51.976Z,54.29
2017-06-24T10:03:02.232Z,54.13
2017-06-24T10:04:12.470Z,54.58
2017-06-24T10:05:22.717Z,54.29
2017-06-24T10:06:32.642Z,55.07
2017-06-24T10:07:42.886Z,54.29
2017-06-24T10:08:52.193Z,54
2017-06-24T10:10:02.440Z,54.19
2017-06-24T10:11:12.379Z,53.81
2017-06-24T10:12:21.990Z,53.42
2017-06-24T10:13:31.919Z,53.52
2017-06-24T10:14:42.166Z,53.71
2017-06-24T10:15:51.781Z,54
2017-06-24T10:17:02.025Z,53.81
2017-06-24T10:18:12.267Z,54.68
2017-06-24T10:19:22.199Z,54.1
2017-06-24T10:20:32.435Z,54.19
2017-06-24T10:21:42.677Z,54.39
2017-06-24T10:22:52.614Z,54.39
2017-06-24T10:24:02.862Z,54.68
2017-06-24T10:25:12.509Z,54.19
2017-06-24T10:26:22.129Z,54.1
2017-06-24T10:27:32.377Z,54.13
2017-06-24T10:28:42.617Z,54.29
2017-06-24T10:29:52.549Z,54.49
2017-06-24T10:31:02.794Z,54.49
2017-06-24T10:32:13.038Z,54.68
2017-06-24T10:33:22.338Z,54.13
2017-06-24T10:34:31.956Z,54.41
2017-06-24T10:35:41.887Z,54.29
2017-06-24T10:36:52.148Z,54.9
2017-06-24T10:38:02.404Z,54.19
2017-06-24T10:39:12.337Z,54.8
2017-06-24T10:40:22.266Z,54.71
2017-06-24T10:41:32.202Z,54.8
2017-06-24T10:42:42.131Z,54.32
2017-06-24T10:43:51.745Z,54.8
2017-06-24T10:45:01.989Z,54.9
2017-06-24T10:46:12.236Z,55.19
2017-06-24T10:47:21.856Z,55.19
2017-06-24T10:48:31.777Z,54.71
2017-06-24T10:49:41.700Z,54.9
2017-06-24T10:50:51.627Z,54.51
2017-06-24T10:52:01.879Z,54.22
2017-06-24T10:53:11.810Z,55.19
2017-06-24T10:54:21.736Z,54.87
2017-06-24T10:55:31.980Z,54.71
2017-06-24T10:56:42.228Z,54.8
2017-06-24T10:57:52.156Z,54.9
2017-06-24T10:59:02.391Z,54.71
2017-06-24T11:00:12.321Z,54.39
2017-06-24T11:01:21.935Z,54.99
2017-06-24T11:02:31.867Z,54.9
2017-06-24T11:03:41.815Z,54.8
2017-06-24T11:04:52.069Z,54.99
2017-06-24T11:06:02.000Z,54.8
2017-06-24T11:07:11.622Z,54.9
2017-06-24T11:08:21.555Z,54.9
2017-06-24T11:09:31.798Z,54.9
2017-06-24T11:10:41.726Z,54.71
2017-06-24T11:11:51.339Z,54.9
2017-06-24T11:13:01.621Z,55.09
2017-06-24T11:14:11.272Z,55.47
2017-06-24T11:15:21.209Z,55.19
2017-06-24T11:16:31.450Z,54.9
2017-06-24T11:17:41.691Z,54.71
2017-06-24T11:18:51.628Z,54.61
2017-06-24T11:20:01.241Z,55.38
2017-06-24T11:21:11.168Z,55.09
2017-06-24T11:22:21.101Z,54.71
2017-06-24T11:23:31.345Z,55.19
2017-06-24T11:24:41.281Z,55.07
2017-06-24T11:25:51.213Z,54.9
2017-06-24T11:27:00.828Z,55.19
2017-06-24T11:28:11.069Z,55.38
2017-06-24T11:29:21.002Z,55.19
2017-06-24T11:30:31.246Z,55.09
2017-06-24T11:31:41.488Z,54.9
2017-06-24T11:32:51.733Z,55.38
2017-06-24T11:34:01.991Z,55.19
2017-06-24T11:35:12.232Z,55.19
2017-06-24T11:36:22.161Z,55.09
2017-06-24T11:37:32.095Z,54.99
2017-06-24T11:38:41.709Z,54.9
2017-06-24T11:39:51.953Z,54.8
2017-06-24T11:41:02.201Z,54.9
2017-06-24T11:42:11.826Z,55.09
2017-06-24T11:43:21.752Z,54.9
2017-06-24T11:44:31.996Z,54.99
2017-06-24T11:45:42.232Z,54.99
2017-06-24T11:46:52.172Z,55.47
2017-06-24T11:48:01.790Z,55.47
2017-06-24T11:49:11.410Z,55.67
2017-06-24T11:50:21.657Z,55.19
2017-06-24T11:51:31.900Z,55.09
2017-06-24T11:52:42.139Z,55.19
2017-06-24T11:53:52.078Z,55.19
2017-06-24T11:55:02.341Z,55.29
2017-06-24T11:56:12.268Z,55.38
2017-06-24T11:57:22.193Z,56.05
2017-06-24T11:58:32.129Z,55.16
2017-06-24T11:59:42.061Z,54.9
2017-06-24T12:00:52.299Z,55.09
2017-06-24T12:02:02.259Z,55.26
2017-06-24T12:03:12.195Z,55.19
2017-06-24T12:04:21.809Z,55.19
2017-06-24T12:05:31.741Z,55.16
2017-06-24T12:06:41.986Z,55.19
2017-06-24T12:07:51.918Z,55.47
2017-06-24T12:09:01.538Z,55.29
2017-06-24T12:10:11.473Z,55.09
2017-06-24T12:11:21.102Z,55.38
2017-06-24T12:12:31.347Z,54.99
2017-06-24T12:13:41.279Z,55.38
2017-06-24T12:14:51.522Z,55.19
2017-06-24T12:16:01.449Z,55.19
2017-06-24T12:17:11.065Z,55.19
2017-06-24T12:18:21.306Z,55.47
2017-06-24T12:19:30.921Z,55.19
2017-06-24T12:20:40.540Z,55.47
2017-06-24T12:21:50.473Z,56.05
2017-06-24T12:23:00.408Z,55.83
2017-06-24T12:24:10.656Z,55.47
2017-06-24T12:25:20.895Z,55.96
2017-06-24T12:26:30.826Z,55.57
2017-06-24T12:27:41.105Z,55.57
2017-06-24T12:28:51.038Z,55.87
2017-06-24T12:30:00.971Z,55.83
2017-06-24T12:31:10.904Z,55.77
2017-06-24T12:32:20.520Z,55.77
2017-06-24T12:33:30.765Z,55.57
2017-06-24T12:34:40.698Z,55.77
2017-06-24T12:35:50.634Z,55.67
2017-06-24T12:37:00.888Z,55.67
2017-06-24T12:38:10.820Z,55.29
2017-06-24T12:39:20.434Z,55.87
2017-06-24T12:40:30.050Z,55.57
2017-06-24T12:41:39.982Z,55.67
2017-06-24T12:42:49.911Z,55.77
2017-06-24T12:43:59.846Z,55.38
2017-06-24T12:45:10.088Z,55.57
2017-06-24T12:46:20.356Z,55.67
2017-06-24T12:47:30.605Z,55.57
2017-06-24T12:48:40.857Z,55.87
2017-06-24T12:49:50.472Z,55.57
2017-06-24T12:51:00.396Z,55.38
2017-06-24T12:52:10.326Z,55.57
2017-06-24T12:53:20.247Z,55.87
2017-06-24T12:54:30.178Z,55.67
2017-06-24T12:55:40.421Z,55.67
2017-06-24T12:56:50.358Z,55.38
2017-06-24T12:57:59.974Z,55.57
2017-06-24T12:59:09.296Z,55.96
2017-06-24T13:00:19.537Z,56.45
2017-06-24T13:01:29.158Z,56.93
2017-06-24T13:02:38.773Z,56.54
2017-06-24T13:03:49.022Z,55.96
2017-06-24T13:04:58.324Z,56.15
2017-06-24T13:06:07.975Z,56.25
2017-06-24T13:07:17.903Z,56.25
2017-06-24T13:08:27.838Z,55.96
2017-06-24T13:09:37.452Z,55.87
2017-06-24T13:10:47.070Z,56.15
2017-06-24T13:11:57.317Z,55.57
2017-06-24T13:13:06.935Z,55.87
2017-06-24T13:14:17.180Z,56.25
2017-06-24T13:15:27.420Z,56.15
2017-06-24T13:16:37.657Z,56.25
2017-06-24T13:17:47.898Z,56.15
2017-06-24T13:18:58.144Z,56.05
2017-06-24T13:20:08.074Z,56.15
2017-06-24T13:21:18.009Z,56.15
2017-06-24T13:22:27.944Z,56.35
2017-06-24T13:23:37.878Z,56.15
2017-06-24T13:24:48.120Z,56.35
2017-06-24T13:25:58.371Z,56.25
2017-06-24T13:27:08.330Z,56.15
2017-06-24T13:28:17.656Z,56.15
2017-06-24T13:29:27.901Z,56.05
2017-06-24T13:30:37.832Z,56.15
2017-06-24T13:31:47.447Z,56.05
2017-06-24T13:32:57.381Z,56.05
2017-06-24T13:34:07.663Z,56.15
2017-06-24T13:35:17.601Z,56.25
2017-06-24T13:36:27.852Z,56.05
2017-06-24T13:37:37.781Z,56.05
2017-06-24T13:38:47.718Z,56.15
2017-06-24T13:39:57.962Z,56.05
2017-06-24T13:41:08.208Z,56.15
2017-06-24T13:42:18.454Z,56.15
2017-06-24T13:43:28.385Z,55.96
2017-06-24T13:44:38.008Z,56.05
2017-06-24T13:45:47.946Z,56.35
2017-06-24T13:46:57.560Z,56.93
2017-06-24T13:48:07.495Z,56.45
2017-06-24T13:49:17.747Z,56.25
2017-06-24T13:50:27.681Z,56.15
2017-06-24T13:51:37.609Z,56.15
2017-06-24T13:52:47.537Z,56.45
2017-06-24T13:53:57.784Z,56.54
2017-06-24T13:55:07.407Z,56.35
2017-06-24T13:56:17.654Z,56.73
2017-06-24T13:57:27.902Z,55.96
2017-06-24T13:58:38.150Z,56.63
2017-06-24T13:59:48.083Z,56.63
2017-06-24T14:00:58.339Z,56.54
2017-06-24T14:02:08.271Z,56.35
2017-06-24T14:03:18.213Z,56.35
2017-06-24T14:04:28.167Z,56.54
2017-06-24T14:05:38.411Z,56.54
2017-06-24T14:06:48.024Z,56.54
2017-06-24T14:07:57.953Z,56.45
2017-06-24T14:09:07.573Z,56.15
2017-06-24T14:10:17.816Z,56.35
2017-06-24T14:11:27.434Z,56.35
2017-06-24T14:12:37.367Z,56.83
2017-06-24T14:13:46.981Z,56.63
2017-06-24T14:14:57.239Z,56.63
2017-06-24T14:16:07.486Z,56.45
2017-06-24T14:17:17.729Z,56.35
2017-06-24T14:18:27.657Z,56.35
2017-06-24T14:19:37.631Z,56.63
2017-06-24T14:20:47.256Z,56.54
2017-06-24T14:21:56.872Z,56.73
2017-06-24T14:23:06.511Z,56.54
2017-06-24T14:24:16.755Z,56.35
2017-06-24T14:25:26.996Z,56.35
2017-06-24T14:26:36.618Z,56.45
2017-06-24T14:27:46.866Z,56.93
2017-06-24T14:28:56.484Z,56.63
2017-06-24T14:30:06.419Z,56.63
2017-06-24T14:31:16.036Z,56.25
2017-06-24T14:32:25.976Z,56.25
2017-06-24T14:33:36.226Z,56.25
2017-06-24T14:34:46.474Z,56.25
2017-06-24T14:35:56.402Z,56.54
2017-06-24T14:37:06.665Z,56.45
2017-06-24T14:38:16.924Z,56.45
2017-06-24T14:39:27.163Z,56.83
2017-06-24T14:40:37.094Z,56.83
2017-06-24T14:41:47.034Z,56.73
2017-06-24T14:42:56.965Z,56.93
2017-06-24T14:44:06.623Z,56.83
2017-06-24T14:45:16.871Z,56.93
2017-06-24T14:46:27.121Z,56.35
2017-06-24T14:47:37.372Z,56.54
2017-06-24T14:48:47.613Z,56.54
2017-06-24T14:49:57.543Z,56.93
2017-06-24T14:51:07.157Z,56.83
2017-06-24T14:52:17.085Z,56.63
2017-06-24T14:53:27.326Z,56.63
2017-06-24T14:54:37.572Z,57.03
2017-06-24T14:55:47.829Z,56.73
2017-06-24T14:56:57.760Z,56.54
2017-06-24T14:58:08.004Z,56.54
2017-06-24T14:59:18.245Z,56.73
2017-06-24T15:00:27.860Z,56.63
2017-06-24T15:01:37.483Z,56.63
2017-06-24T15:02:47.410Z,56.73
2017-06-24T15:03:57.653Z,56.73